Time;durP1;ratioP1;P1;durP2;ratioP2;P2;SDS_P1;SDS_P2;PMS_P1;PMS_P2;Temp;Humidity;BMP_temperature;BMP_pressure;BME280_temperature;BME280_humidity;BME280_pressure;Samples;Min_cycle;Max_cycle;Signal;HPM_P1;HPM_P2
2021/01/25 00:02:29;;;;;;;6.70;3.83;;;;;;;;;;6396281;22;20200;-57
2021/01/25 00:04:56;;;;;;;6.65;4.40;;;;;;;;;;6396216;22;20179;-53
2021/01/25 00:07:23;;;;;;;7.50;4.70;;;;;;;;;;6395127;22;20243;-55
2021/01/25 00:09:51;;;;;;;5.78;3.58;;;;;;;;;;6395454;22;20181;-57
2021/01/25 00:12:17;;;;;;;8.00;4.57;;;;;;;;;;6395734;22;20160;-53
2021/01/25 00:14:49;;;;;;;6.65;4.45;;;;;;;;;;6396401;22;20168;-52
2021/01/25 00:17:16;;;;;;;52.75;29.83;;;;;;;;;;6395806;22;20180;-60
2021/01/25 00:19:43;;;;;;;8.70;5.22;;;;;;;;;;6396624;22;20183;-57
2021/01/25 00:22:17;;;;;;;10.15;4.18;;;;;;;;;;6395929;22;20207;-48
2021/01/25 00:24:44;;;;;;;7.82;4.53;;;;;;;;;;6396225;22;20202;-52
2021/01/25 00:27:11;;;;;;;7.82;4.45;;;;;;;;;;6395994;22;20168;-58
2021/01/25 00:29:49;;;;;;;6.07;3.90;;;;;;;;;;6396488;22;20167;-56
2021/01/25 00:32:16;;;;;;;10.25;4.75;;;;;;;;;;6395079;22;20168;-50
2021/01/25 00:34:44;;;;;;;7.10;4.75;;;;;;;;;;6396306;22;20164;-50
2021/01/25 00:37:18;;;;;;;6.35;3.20;;;;;;;;;;6395899;22;20169;-59
2021/01/25 00:39:45;;;;;;;7.72;4.45;;;;;;;;;;6396428;22;20188;-49
2021/01/25 00:42:12;;;;;;;6.80;3.70;;;;;;;;;;6395826;22;20199;-53
2021/01/25 00:44:56;;;;;;;5.60;3.45;;;;;;;;;;6395472;22;20206;-45
2021/01/25 00:47:23;;;;;;;6.47;3.80;;;;;;;;;;6395613;22;20181;-57
2021/01/25 00:49:50;;;;;;;6.70;3.63;;;;;;;;;;6395974;22;20187;-50
2021/01/25 00:52:39;;;;;;;11.32;4.65;;;;;;;;;;6396140;22;20165;-59
2021/01/25 00:55:10;;;;;;;6.25;3.65;;;;;;;;;;6396562;22;20167;-53
2021/01/25 00:57:39;;;;;;;7.75;3.85;;;;;;;;;;6396441;22;20198;-58
2021/01/25 01:00:09;;;;;;;5.70;4.43;;;;;;;;;;6396897;22;20164;-59
2021/01/25 01:02:37;;;;;;;4.68;3.50;;;;;;;;;;6395699;22;20183;-53
2021/01/25 01:05:11;;;;;;;8.82;4.68;;;;;;;;;;6396183;22;20148;-59
2021/01/25 01:07:38;;;;;;;5.40;3.80;;;;;;;;;;6395917;22;20176;-56
2021/01/25 01:10:06;;;;;;;5.60;3.80;;;;;;;;;;6395885;22;20176;-53
2021/01/25 01:12:42;;;;;;;4.90;3.42;;;;;;;;;;6395704;22;20191;-52
2021/01/25 01:15:12;;;;;;;5.55;3.25;;;;;;;;;;6395732;22;20177;-52
2021/01/25 01:17:39;;;;;;;7.45;3.30;;;;;;;;;;6395805;22;20263;-52
2021/01/25 01:20:07;;;;;;;6.90;4.47;;;;;;;;;;6394716;22;20165;-48
2021/01/25 01:22:34;;;;;;;7.00;4.10;;;;;;;;;;6395150;22;20183;-54
2021/01/25 01:25:01;;;;;;;6.18;4.00;;;;;;;;;;6394386;22;20196;-52
2021/01/25 01:27:33;;;;;;;10.85;4.07;;;;;;;;;;6395054;22;20289;-58
2021/01/25 01:30:00;;;;;;;5.82;3.60;;;;;;;;;;6394279;22;20202;-52
2021/01/25 01:32:27;;;;;;;6.72;3.38;;;;;;;;;;6395548;22;20201;-55
2021/01/25 01:35:04;;;;;;;5.65;3.55;;;;;;;;;;6396291;22;20190;-60
2021/01/25 01:37:31;;;;;;;8.63;4.50;;;;;;;;;;6395374;22;20160;-53
2021/01/25 01:40:01;;;;;;;4.55;3.15;;;;;;;;;;6395449;22;20164;-51
2021/01/25 01:42:29;;;;;;;5.25;3.65;;;;;;;;;;6395309;22;20197;-56
2021/01/25 01:44:56;;;;;;;4.95;3.15;;;;;;;;;;6395154;22;20207;-56
2021/01/25 01:47:22;;;;;;;6.90;3.65;;;;;;;;;;6395395;22;20153;-56
2021/01/25 01:49:50;;;;;;;8.30;4.10;;;;;;;;;;6395498;22;20214;-54
2021/01/25 01:52:19;;;;;;;6.40;4.20;;;;;;;;;;6394586;22;20186;-58
2021/01/25 01:54:46;;;;;;;7.32;3.80;;;;;;;;;;6394417;22;20164;-58
2021/01/25 01:57:13;;;;;;;6.72;4.20;;;;;;;;;;6394477;22;20163;-52
2021/01/25 01:59:40;;;;;;;4.22;3.38;;;;;;;;;;6395529;22;20180;-56
2021/01/25 02:02:10;;;;;;;5.28;4.00;;;;;;;;;;6396243;22;20196;-51
2021/01/25 02:04:41;;;;;;;9.35;3.33;;;;;;;;;;6395700;22;20172;-56
2021/01/25 02:07:10;;;;;;;6.30;3.53;;;;;;;;;;6396325;22;20182;-56
2021/01/25 02:09:39;;;;;;;7.07;3.78;;;;;;;;;;6396335;22;20164;-54
2021/01/25 02:12:07;;;;;;;7.32;4.65;;;;;;;;;;6396795;22;20189;-57
2021/01/25 02:14:34;;;;;;;6.72;3.17;;;;;;;;;;6395504;22;20171;-52
2021/01/25 02:17:01;;;;;;;7.18;4.25;;;;;;;;;;6395254;22;20156;-57
2021/01/25 02:19:47;;;;;;;8.75;3.47;;;;;;;;;;6395084;22;20187;-55
2021/01/25 02:22:24;;;;;;;5.72;2.72;;;;;;;;;;6394354;22;20192;-54
2021/01/25 02:24:57;;;;;;;4.30;3.20;;;;;;;;;;6395112;22;20215;-53
2021/01/25 02:27:33;;;;;;;6.82;3.58;;;;;;;;;;6395209;22;20175;-51
2021/01/25 02:30:02;;;;;;;5.18;3.70;;;;;;;;;;6394125;22;20180;-54
2021/01/25 02:32:31;;;;;;;4.55;3.50;;;;;;;;;;6394563;22;20205;-55
2021/01/25 02:35:17;;;;;;;5.45;3.53;;;;;;;;;;6397609;22;20231;-55
2021/01/25 02:37:46;;;;;;;5.95;3.65;;;;;;;;;;6396384;22;20212;-53
2021/01/25 02:40:13;;;;;;;6.55;3.40;;;;;;;;;;6397322;22;20214;-55
2021/01/25 02:42:54;;;;;;;4.85;3.30;;;;;;;;;;6395812;22;20196;-56
2021/01/25 02:45:22;;;;;;;4.93;3.58;;;;;;;;;;6396716;22;20202;-52
2021/01/25 02:47:50;;;;;;;5.47;3.38;;;;;;;;;;6397252;22;20164;-54
2021/01/25 02:50:17;;;;;;;5.95;3.40;;;;;;;;;;6397510;22;20181;-55
2021/01/25 02:52:43;;;;;;;5.95;3.17;;;;;;;;;;6397268;22;20184;-56
2021/01/25 02:55:26;;;;;;;6.07;3.85;;;;;;;;;;6397377;22;20232;-56
2021/01/25 02:57:56;;;;;;;8.70;3.03;;;;;;;;;;6397315;22;20237;-53
2021/01/25 03:00:23;;;;;;;9.18;3.75;;;;;;;;;;6396951;22;20168;-47
2021/01/25 03:02:54;;;;;;;5.82;3.75;;;;;;;;;;6396637;22;20199;-51
2021/01/25 03:05:21;;;;;;;7.43;3.50;;;;;;;;;;6396463;22;20249;-46
2021/01/25 03:07:50;;;;;;;5.28;3.63;;;;;;;;;;6396574;22;20176;-56
2021/01/25 03:10:19;;;;;;;5.97;3.80;;;;;;;;;;6396829;22;20237;-55
2021/01/25 03:12:47;;;;;;;5.57;3.50;;;;;;;;;;6396811;22;20175;-56
2021/01/25 03:15:18;;;;;;;6.18;3.88;;;;;;;;;;6398449;22;20167;-57
2021/01/25 03:17:48;;;;;;;5.70;3.80;;;;;;;;;;6398123;22;20165;-52
2021/01/25 03:20:15;;;;;;;9.85;3.58;;;;;;;;;;6397161;22;20203;-53
2021/01/25 03:22:42;;;;;;;8.23;4.40;;;;;;;;;;6397023;22;20245;-57
2021/01/25 03:25:09;;;;;;;6.57;3.90;;;;;;;;;;6396153;22;20177;-54
2021/01/25 03:27:36;;;;;;;9.18;4.10;;;;;;;;;;6396910;22;20156;-59
2021/01/25 03:30:06;;;;;;;7.85;4.50;;;;;;;;;;6396382;22;20160;-60
2021/01/25 03:32:39;;;;;;;7.38;4.25;;;;;;;;;;6397421;22;20177;-55
2021/01/25 03:35:08;;;;;;;9.15;3.97;;;;;;;;;;6396605;22;20223;-57
2021/01/25 03:37:35;;;;;;;7.10;4.15;;;;;;;;;;6396091;22;20350;-59
2021/01/25 03:40:10;;;;;;;6.68;4.38;;;;;;;;;;6396593;22;20155;-59
2021/01/25 03:42:37;;;;;;;7.80;4.15;;;;;;;;;;6396883;22;20260;-56
2021/01/25 03:45:09;;;;;;;8.75;4.53;;;;;;;;;;6396703;22;20177;-57
2021/01/25 03:47:43;;;;;;;9.57;4.35;;;;;;;;;;6398144;22;20168;-57
2021/01/25 03:50:10;;;;;;;6.10;5.30;;;;;;;;;;6396143;22;20168;-55
2021/01/25 03:52:37;;;;;;;11.15;4.70;;;;;;;;;;6396773;22;20180;-54
2021/01/25 03:55:09;;;;;;;14.65;6.07;;;;;;;;;;6396731;22;20148;-55
2021/01/25 03:57:36;;;;;;;8.65;5.40;;;;;;;;;;6396139;22;20174;-60
2021/01/25 04:00:04;;;;;;;7.80;5.07;;;;;;;;;;6367956;22;20178;-56
2021/01/25 04:02:33;;;;;;;9.40;5.47;;;;;;;;;;6396650;22;20195;-58
2021/01/25 04:05:01;;;;;;;10.13;4.88;;;;;;;;;;6395253;22;20199;-53
2021/01/25 04:07:28;;;;;;;11.57;6.00;;;;;;;;;;6396598;22;20177;-51
2021/01/25 04:10:02;;;;;;;7.18;5.00;;;;;;;;;;6396010;22;20164;-55
2021/01/25 04:12:29;;;;;;;7.82;5.47;;;;;;;;;;6396099;22;20160;-58
2021/01/25 04:14:56;;;;;;;8.18;5.05;;;;;;;;;;6397690;22;20176;-56
2021/01/25 04:17:29;;;;;;;10.57;6.32;;;;;;;;;;6396710;22;20169;-52
2021/01/25 04:19:57;;;;;;;12.77;5.70;;;;;;;;;;6396861;22;20164;-59
2021/01/25 04:22:25;;;;;;;12.18;6.35;;;;;;;;;;6396548;22;20248;-57
2021/01/25 04:25:16;;;;;;;9.98;6.40;;;;;;;;;;6396758;22;20167;-57
2021/01/25 04:27:42;;;;;;;12.30;5.53;;;;;;;;;;6333812;22;20182;-58
2021/01/25 04:30:12;;;;;;;13.20;7.00;;;;;;;;;;6333857;22;20173;-61
2021/01/25 04:33:07;;;;;;;12.35;7.50;;;;;;;;;;6334241;22;20174;-54
2021/01/25 04:35:39;;;;;;;9.85;6.50;;;;;;;;;;6333603;22;20181;-56
2021/01/25 04:38:07;;;;;;;14.25;7.57;;;;;;;;;;6334088;22;20222;-57
2021/01/25 04:40:34;;;;;;;11.23;6.50;;;;;;;;;;6333713;22;20203;-62
2021/01/25 04:43:01;;;;;;;8.90;6.25;;;;;;;;;;6334076;22;20202;-58
2021/01/25 04:45:28;;;;;;;12.68;6.55;;;;;;;;;;6334031;22;20150;-54
2021/01/25 04:48:03;;;;;;;8.45;6.80;;;;;;;;;;6333743;22;20166;-52
2021/01/25 04:50:40;;;;;;;8.18;6.40;;;;;;;;;;6333424;22;20165;-61
2021/01/25 04:53:08;;;;;;;10.32;6.80;;;;;;;;;;6332472;22;20175;-56
2021/01/25 04:55:36;;;;;;;9.93;6.20;;;;;;;;;;6332834;22;20187;-55
2021/01/25 04:58:03;;;;;;;11.13;7.60;;;;;;;;;;6333415;22;20146;-57
2021/01/25 05:00:53;;;;;;;10.75;6.82;;;;;;;;;;6333600;22;20153;-54
2021/01/25 05:03:20;;;;;;;13.43;7.70;;;;;;;;;;6340416;22;20198;-60
2021/01/25 05:05:53;;;;;;;9.32;7.35;;;;;;;;;;6397739;22;20149;-54
2021/01/25 05:08:22;;;;;;;13.20;8.18;;;;;;;;;;6369839;22;20176;-50
2021/01/25 05:10:52;;;;;;;11.52;7.10;;;;;;;;;;6396278;22;20189;-51
2021/01/25 05:13:26;;;;;;;11.13;7.90;;;;;;;;;;6396773;22;20207;-54
2021/01/25 05:15:53;;;;;;;9.88;6.97;;;;;;;;;;6395879;22;20282;-57
2021/01/25 05:18:30;;;;;;;14.18;8.38;;;;;;;;;;6395778;22;20172;-54
2021/01/25 05:21:15;;;;;;;13.80;7.70;;;;;;;;;;6395535;22;20163;-60
2021/01/25 05:23:45;;;;;;;13.05;8.15;;;;;;;;;;6396593;22;20164;-55
2021/01/25 05:26:14;;;;;;;13.85;8.27;;;;;;;;;;6395867;22;20172;-62
2021/01/25 05:28:41;;;;;;;10.00;7.00;;;;;;;;;;6395286;22;20245;-55
2021/01/25 05:31:21;;;;;;;10.05;7.32;;;;;;;;;;6395255;22;20183;-52
2021/01/25 05:33:51;;;;;;;14.02;9.05;;;;;;;;;;6395077;22;20190;-54
2021/01/25 05:36:26;;;;;;;12.68;9.25;;;;;;;;;;6393839;22;20208;-57
2021/01/25 05:41:36;;;;;;;13.63;9.80;;;;;;;;;;6331224;22;20205;-57
2021/01/25 05:44:14;;;;;;;11.13;7.40;;;;;;;;;;6364669;22;20177;-55
2021/01/25 05:46:46;;;;;;;14.63;8.25;;;;;;;;;;6364502;22;20161;-55
2021/01/25 05:49:13;;;;;;;12.13;8.35;;;;;;;;;;6379129;22;20187;-58
2021/01/25 05:51:51;;;;;;;11.00;9.20;;;;;;;;;;6395448;22;20232;-54
2021/01/25 05:54:26;;;;;;;15.95;8.45;;;;;;;;;;6394185;22;20163;-48
2021/01/25 05:56:57;;;;;;;12.00;8.05;;;;;;;;;;6395419;22;20161;-58
2021/01/25 06:07:21;;;;;;;12.23;7.73;;;;;;;;;;6395274;22;20175;-50
2021/01/25 06:09:53;;;;;;;12.20;7.95;;;;;;;;;;6396666;22;20177;-56
2021/01/25 06:12:24;;;;;;;11.15;9.05;;;;;;;;;;6396602;22;20196;-58
2021/01/25 06:14:56;;;;;;;12.82;7.75;;;;;;;;;;6397387;22;20181;-54
2021/01/25 06:17:23;;;;;;;11.07;8.93;;;;;;;;;;6397575;22;20192;-57
2021/01/25 06:19:56;;;;;;;10.02;7.50;;;;;;;;;;6396855;22;20213;-57
2021/01/25 06:22:23;;;;;;;11.23;7.10;;;;;;;;;;6396549;22;20248;-61
2021/01/25 06:24:51;;;;;;;12.65;8.00;;;;;;;;;;6396920;22;20206;-56
2021/01/25 06:27:23;;;;;;;9.52;6.85;;;;;;;;;;6397487;22;20187;-56
2021/01/25 06:29:59;;;;;;;11.40;7.78;;;;;;;;;;6397459;22;20180;-53
2021/01/25 06:32:53;;;;;;;9.95;7.20;;;;;;;;;;6397403;22;20239;-54
2021/01/25 06:35:22;;;;;;;11.65;8.50;;;;;;;;;;6397116;22;20180;-60
2021/01/25 06:38:12;;;;;;;14.20;8.93;;;;;;;;;;6398131;22;20172;-59
2021/01/25 06:41:05;;;;;;;12.90;7.78;;;;;;;;;;6397561;22;20216;-57
2021/01/25 06:43:32;;;;;;;15.32;8.25;;;;;;;;;;6397074;22;20200;-54
2021/01/25 06:46:13;;;;;;;14.25;7.50;;;;;;;;;;6396869;22;20163;-61
2021/01/25 06:49:01;;;;;;;13.95;9.55;;;;;;;;;;6393377;22;20185;-51
2021/01/25 06:51:29;;;;;;;12.77;7.65;;;;;;;;;;6396705;22;20168;-51
2021/01/25 06:53:59;;;;;;;12.75;8.55;;;;;;;;;;6396690;22;20180;-56
2021/01/25 06:56:48;;;;;;;10.25;7.55;;;;;;;;;;6396709;22;20165;-58
2021/01/25 06:59:16;;;;;;;17.55;8.68;;;;;;;;;;6396828;22;20167;-58
2021/01/25 07:01:43;;;;;;;11.50;8.45;;;;;;;;;;6396808;22;20169;-56
2021/01/25 07:04:29;;;;;;;14.52;8.70;;;;;;;;;;6396109;22;20207;-58
2021/01/25 07:06:56;;;;;;;11.40;7.75;;;;;;;;;;6395582;22;20200;-53
2021/01/25 07:09:28;;;;;;;12.98;7.82;;;;;;;;;;6396646;22;20184;-54
2021/01/25 07:12:01;;;;;;;11.73;8.23;;;;;;;;;;6395867;22;20164;-54
2021/01/25 07:14:29;;;;;;;14.27;9.02;;;;;;;;;;6395773;22;20271;-60
2021/01/25 07:16:58;;;;;;;13.55;9.02;;;;;;;;;;6396880;22;20161;-58
2021/01/25 07:19:28;;;;;;;15.48;8.52;;;;;;;;;;6395286;22;20200;-56
2021/01/25 07:21:55;;;;;;;17.50;9.05;;;;;;;;;;6396265;22;20197;-56
2021/01/25 07:24:23;;;;;;;13.25;8.02;;;;;;;;;;6396482;22;20178;-57
2021/01/25 07:26:52;;;;;;;11.15;8.63;;;;;;;;;;6396336;22;20270;-55
2021/01/25 07:29:19;;;;;;;13.75;9.23;;;;;;;;;;6396501;22;20166;-60
2021/01/25 07:31:53;;;;;;;11.80;8.10;;;;;;;;;;6396325;22;20164;-56
2021/01/25 07:34:21;;;;;;;13.18;8.50;;;;;;;;;;6397292;22;20429;-57
2021/01/25 07:36:50;;;;;;;9.90;7.80;;;;;;;;;;6397151;22;20274;-55
2021/01/25 07:39:18;;;;;;;12.48;9.10;;;;;;;;;;6397492;22;20194;-54
2021/01/25 07:41:46;;;;;;;15.00;9.93;;;;;;;;;;6397495;22;20203;-59
2021/01/25 07:44:14;;;;;;;13.02;9.43;;;;;;;;;;6397330;22;20160;-56
2021/01/25 07:46:43;;;;;;;10.80;8.38;;;;;;;;;;6397213;22;20149;-54
2021/01/25 07:49:10;;;;;;;13.38;9.45;;;;;;;;;;6396478;22;20172;-54
2021/01/25 07:51:38;;;;;;;13.35;8.70;;;;;;;;;;6396791;22;20176;-59
2021/01/25 07:54:06;;;;;;;13.50;8.55;;;;;;;;;;6395881;22;20164;-59
2021/01/25 07:56:33;;;;;;;11.48;8.35;;;;;;;;;;6396211;22;20171;-57
2021/01/25 07:59:04;;;;;;;10.25;7.72;;;;;;;;;;6395696;22;20166;-52
2021/01/25 08:01:50;;;;;;;12.02;9.10;;;;;;;;;;6395450;22;20221;-58
2021/01/25 08:04:34;;;;;;;14.57;8.98;;;;;;;;;;6395597;22;20310;-56
2021/01/25 08:07:05;;;;;;;16.58;8.65;;;;;;;;;;6395208;22;20231;-55
2021/01/25 08:09:37;;;;;;;14.20;9.75;;;;;;;;;;6395626;22;20164;-53
2021/01/25 08:12:04;;;;;;;10.43;8.15;;;;;;;;;;6394965;22;20165;-54
2021/01/25 08:14:50;;;;;;;14.80;9.57;;;;;;;;;;6395329;22;20181;-55
2021/01/25 08:17:20;;;;;;;12.93;8.80;;;;;;;;;;6395512;22;20181;-57
2021/01/25 08:19:48;;;;;;;23.73;12.38;;;;;;;;;;6394592;22;20186;-50
2021/01/25 08:22:27;;;;;;;31.00;12.13;;;;;;;;;;6395223;22;20196;-57
2021/01/25 08:24:55;;;;;;;15.05;8.80;;;;;;;;;;6395342;22;20211;-56
2021/01/25 08:27:22;;;;;;;11.85;8.57;;;;;;;;;;6394648;22;20184;-58
2021/01/25 08:30:11;;;;;;;14.45;10.00;;;;;;;;;;6394824;22;20188;-52
2021/01/25 08:32:47;;;;;;;13.93;11.45;;;;;;;;;;6393718;22;20193;-59
2021/01/25 08:35:15;;;;;;;17.70;12.60;;;;;;;;;;6395443;22;20204;-57
2021/01/25 08:37:41;;;;;;;13.63;10.15;;;;;;;;;;6395070;22;20226;-59
2021/01/25 08:40:12;;;;;;;15.95;10.73;;;;;;;;;;6394601;22;20157;-58
2021/01/25 08:42:43;;;;;;;16.40;10.52;;;;;;;;;;6394550;22;20186;-53
2021/01/25 08:45:11;;;;;;;11.55;9.35;;;;;;;;;;6395137;22;20228;-59
2021/01/25 08:47:39;;;;;;;16.52;11.15;;;;;;;;;;6395233;22;20184;-53
2021/01/25 08:50:19;;;;;;;20.15;10.60;;;;;;;;;;6394808;22;20161;-54
2021/01/25 08:52:46;;;;;;;14.15;10.40;;;;;;;;;;6394219;22;20192;-54
2021/01/25 08:55:15;;;;;;;17.02;11.40;;;;;;;;;;6395077;22;20176;-57
2021/01/25 08:58:02;;;;;;;34.75;22.08;;;;;;;;;;6394725;22;20188;-58
2021/01/25 09:00:34;;;;;;;16.88;10.60;;;;;;;;;;6394397;22;20237;-52
2021/01/25 09:03:01;;;;;;;13.98;10.73;;;;;;;;;;6394260;22;20225;-49
2021/01/25 09:05:36;;;;;;;14.20;10.55;;;;;;;;;;6394617;22;20153;-59
2021/01/25 09:08:03;;;;;;;12.02;9.27;;;;;;;;;;6394257;22;20164;-54
2021/01/25 09:10:30;;;;;;;12.70;9.77;;;;;;;;;;6394222;22;20177;-51
2021/01/25 09:13:07;;;;;;;12.20;9.07;;;;;;;;;;6394623;22;20164;-59
2021/01/25 09:15:34;;;;;;;12.50;9.13;;;;;;;;;;6394137;22;20211;-60
2021/01/25 09:18:01;;;;;;;11.60;9.63;;;;;;;;;;6393143;22;20169;-53
2021/01/25 09:20:52;;;;;;;12.88;9.60;;;;;;;;;;6395203;22;20162;-60
2021/01/25 09:23:19;;;;;;;13.73;9.65;;;;;;;;;;6395056;22;20255;-57
2021/01/25 09:25:50;;;;;;;23.77;10.32;;;;;;;;;;6394290;22;20494;-56
2021/01/25 09:28:25;;;;;;;13.68;10.07;;;;;;;;;;6395165;22;20176;-54
2021/01/25 09:30:52;;;;;;;12.05;9.50;;;;;;;;;;6393995;22;20218;-59
2021/01/25 09:33:20;;;;;;;15.13;9.90;;;;;;;;;;6393166;22;20177;-55
2021/01/25 09:35:47;;;;;;;12.73;9.27;;;;;;;;;;6394431;22;20179;-56
2021/01/25 09:38:14;;;;;;;15.80;8.85;;;;;;;;;;6393533;22;20186;-58
2021/01/25 09:40:50;;;;;;;13.27;8.30;;;;;;;;;;6394234;22;20154;-54
2021/01/25 09:43:17;;;;;;;10.35;8.88;;;;;;;;;;6394038;22;20196;-54
2021/01/25 09:45:45;;;;;;;14.32;9.82;;;;;;;;;;6394278;22;20180;-60
2021/01/25 09:48:14;;;;;;;11.48;7.68;;;;;;;;;;6367315;22;20184;-49
2021/01/25 09:50:41;;;;;;;13.32;8.65;;;;;;;;;;6394110;22;20224;-55
2021/01/25 09:53:10;;;;;;;15.68;8.15;;;;;;;;;;6393704;22;20225;-56
2021/01/25 09:55:40;;;;;;;11.77;8.07;;;;;;;;;;6395287;22;20157;-56
2021/01/25 09:58:07;;;;;;;12.93;8.95;;;;;;;;;;6393260;22;20181;-56
2021/01/25 10:00:34;;;;;;;11.38;9.15;;;;;;;;;;6393877;22;20170;-54
2021/01/25 10:03:02;;;;;;;10.18;7.82;;;;;;;;;;6393584;22;20198;-57
2021/01/25 10:05:28;;;;;;;13.45;8.77;;;;;;;;;;6393750;22;20188;-55
2021/01/25 10:08:07;;;;;;;12.52;8.70;;;;;;;;;;6394690;22;20160;-58
2021/01/25 10:10:35;;;;;;;12.43;8.82;;;;;;;;;;6393543;22;20169;-56
2021/01/25 10:13:02;;;;;;;22.33;10.65;;;;;;;;;;6394219;22;20174;-54
2021/01/25 10:15:35;;;;;;;14.57;9.82;;;;;;;;;;6394469;22;20264;-57
2021/01/25 10:18:02;;;;;;;13.57;9.13;;;;;;;;;;6393862;22;20175;-59
2021/01/25 10:20:36;;;;;;;19.08;11.45;;;;;;;;;;6394541;22;20193;-50
2021/01/25 10:23:05;;;;;;;12.48;9.15;;;;;;;;;;6394243;22;20233;-57
2021/01/25 10:25:32;;;;;;;16.08;10.90;;;;;;;;;;6394451;22;20152;-55
2021/01/25 10:28:01;;;;;;;14.20;10.05;;;;;;;;;;6393902;22;20390;-56
2021/01/25 10:30:30;;;;;;;12.35;8.80;;;;;;;;;;6392943;22;20206;-58
2021/01/25 10:32:59;;;;;;;16.30;10.43;;;;;;;;;;6394926;22;20182;-58
2021/01/25 10:35:30;;;;;;;17.98;11.25;;;;;;;;;;6394456;22;20227;-59
2021/01/25 10:38:11;;;;;;;14.45;9.15;;;;;;;;;;6393695;22;20150;-57
2021/01/25 10:40:38;;;;;;;12.20;9.05;;;;;;;;;;6393094;22;20191;-59
2021/01/25 10:43:09;;;;;;;15.70;10.20;;;;;;;;;;6393050;22;20208;-59
2021/01/25 10:45:46;;;;;;;15.32;10.27;;;;;;;;;;6393831;22;20221;-52
2021/01/25 10:48:14;;;;;;;14.90;9.77;;;;;;;;;;6392883;22;20182;-54
2021/01/25 10:50:40;;;;;;;17.58;9.77;;;;;;;;;;6393296;22;20176;-60
2021/01/25 10:53:07;;;;;;;13.85;9.45;;;;;;;;;;6393543;22;20184;-56
2021/01/25 10:55:34;;;;;;;17.77;10.82;;;;;;;;;;6394876;22;20213;-59
2021/01/25 10:58:05;;;;;;;15.43;9.95;;;;;;;;;;6395849;22;20191;-55
2021/01/25 11:00:54;;;;;;;14.25;9.45;;;;;;;;;;6395051;22;20244;-51
2021/01/25 11:03:22;;;;;;;16.90;9.60;;;;;;;;;;6395828;22;20249;-57
2021/01/25 11:05:52;;;;;;;12.40;9.30;;;;;;;;;;6395859;22;20175;-55
2021/01/25 11:08:19;;;;;;;15.30;9.20;;;;;;;;;;6395437;22;20192;-54
2021/01/25 11:10:46;;;;;;;15.40;10.38;;;;;;;;;;6395937;22;20164;-49
2021/01/25 11:13:24;;;;;;;12.70;9.65;;;;;;;;;;6395939;22;20176;-56
2021/01/25 11:15:52;;;;;;;16.50;10.15;;;;;;;;;;6367960;22;20170;-57
2021/01/25 11:18:19;;;;;;;13.07;9.10;;;;;;;;;;6395999;22;20185;-58
2021/01/25 11:21:17;;;;;;;17.60;10.10;;;;;;;;;;6394506;22;20251;-58
2021/01/25 11:23:44;;;;;;;12.88;10.07;;;;;;;;;;6395035;22;20205;-52
2021/01/25 11:26:11;;;;;;;14.23;9.43;;;;;;;;;;6395954;22;20168;-54
2021/01/25 11:28:42;;;;;;;15.98;9.98;;;;;;;;;;6395818;22;20156;-55
2021/01/25 11:31:09;;;;;;;14.23;10.82;;;;;;;;;;6367429;22;20180;-54
2021/01/25 11:33:54;;;;;;;12.77;10.20;;;;;;;;;;6395205;22;20183;-58
2021/01/25 11:36:23;;;;;;;13.88;9.30;;;;;;;;;;6395320;22;20187;-52
2021/01/25 11:38:51;;;;;;;13.70;10.25;;;;;;;;;;6395005;22;20169;-53
2021/01/25 11:41:23;;;;;;;17.30;11.75;;;;;;;;;;6395083;22;20223;-57
2021/01/25 11:43:49;;;;;;;13.75;9.95;;;;;;;;;;6393953;22;20277;-58
2021/01/25 11:46:17;;;;;;;15.68;10.10;;;;;;;;;;6394421;22;20176;-54
2021/01/25 11:48:44;;;;;;;17.02;10.88;;;;;;;;;;6394659;22;20194;-54
2021/01/25 11:51:11;;;;;;;15.27;11.07;;;;;;;;;;6395162;22;20173;-54
2021/01/25 11:53:49;;;;;;;13.60;10.13;;;;;;;;;;6394613;22;20149;-51
2021/01/25 11:56:18;;;;;;;14.27;9.45;;;;;;;;;;6394769;22;20172;-56
2021/01/25 11:58:44;;;;;;;15.23;10.00;;;;;;;;;;6393801;22;20187;-58
2021/01/25 12:01:17;;;;;;;13.52;9.35;;;;;;;;;;6394597;22;20180;-57
2021/01/25 12:03:56;;;;;;;17.67;11.98;;;;;;;;;;6394081;22;20198;-56
2021/01/25 12:06:23;;;;;;;13.85;10.20;;;;;;;;;;6393791;22;20179;-58
2021/01/25 12:08:50;;;;;;;14.30;9.75;;;;;;;;;;6395234;22;20240;-58
2021/01/25 12:11:18;;;;;;;15.55;9.85;;;;;;;;;;6395892;22;20153;-53
2021/01/25 12:13:48;;;;;;;17.42;10.85;;;;;;;;;;6395092;22;20153;-56
2021/01/25 12:16:17;;;;;;;17.17;11.13;;;;;;;;;;6395382;22;20177;-58
2021/01/25 12:18:44;;;;;;;26.10;11.07;;;;;;;;;;6394729;22;20185;-57
2021/01/25 12:21:13;;;;;;;16.38;10.25;;;;;;;;;;6395166;22;20368;-59
2021/01/25 12:23:40;;;;;;;16.92;10.70;;;;;;;;;;6394881;22;20224;-56
2021/01/25 12:26:16;;;;;;;16.38;10.98;;;;;;;;;;6394209;22;20181;-58
2021/01/25 12:28:44;;;;;;;11.65;8.80;;;;;;;;;;6394658;22;20203;-50
2021/01/25 12:31:11;;;;;;;15.50;11.27;;;;;;;;;;6393845;22;20192;-49
2021/01/25 12:33:44;;;;;;;13.40;9.60;;;;;;;;;;6396033;22;20165;-55
2021/01/25 12:36:11;;;;;;;17.60;10.98;;;;;;;;;;6395318;22;20177;-60
2021/01/25 12:38:38;;;;;;;15.63;10.20;;;;;;;;;;6395409;22;20192;-59
2021/01/25 12:41:05;;;;;;;17.95;13.20;;;;;;;;;;6395505;22;20161;-56
2021/01/25 12:43:32;;;;;;;20.17;10.93;;;;;;;;;;6395276;22;20185;-55
2021/01/25 12:46:00;;;;;;;17.73;11.70;;;;;;;;;;6394791;22;20203;-51
2021/01/25 12:48:27;;;;;;;21.00;13.15;;;;;;;;;;6395255;22;20216;-56
2021/01/25 12:50:56;;;;;;;17.33;12.52;;;;;;;;;;6394994;22;20375;-60
2021/01/25 12:53:24;;;;;;;13.20;10.30;;;;;;;;;;6394534;22;20164;-55
2021/01/25 12:56:23;;;;;;;16.30;11.77;;;;;;;;;;6395101;22;20228;-60
2021/01/25 12:58:50;;;;;;;15.57;11.50;;;;;;;;;;6394720;22;20193;-56
2021/01/25 13:01:18;;;;;;;15.77;12.00;;;;;;;;;;6393115;22;20182;-55
2021/01/25 13:03:59;;;;;;;16.83;10.98;;;;;;;;;;6392728;22;20208;-60
2021/01/25 13:06:26;;;;;;;16.88;11.80;;;;;;;;;;6393722;22;20221;-57
2021/01/25 13:08:53;;;;;;;15.40;11.10;;;;;;;;;;6394411;22;20192;-52
2021/01/25 13:11:21;;;;;;;11.95;8.70;;;;;;;;;;6393627;22;20227;-56
2021/01/25 13:13:48;;;;;;;16.02;9.65;;;;;;;;;;6393659;22;20194;-54
2021/01/25 13:16:32;;;;;;;11.95;9.27;;;;;;;;;;6392784;22;20285;-57
2021/01/25 13:18:59;;;;;;;14.27;10.75;;;;;;;;;;6390430;22;20192;-57
2021/01/25 13:21:33;;;;;;;11.27;9.25;;;;;;;;;;6386146;22;20180;-57
2021/01/25 13:24:21;;;;;;;11.35;8.43;;;;;;;;;;6387529;22;20211;-55
2021/01/25 13:26:48;;;;;;;12.50;10.32;;;;;;;;;;6392260;22;20230;-56
2021/01/25 13:29:26;;;;;;;13.98;9.40;;;;;;;;;;6392670;22;20181;-57
2021/01/25 13:32:28;;;;;;;17.27;11.07;;;;;;;;;;6393620;22;20221;-53
2021/01/25 13:34:57;;;;;;;14.68;10.43;;;;;;;;;;6392185;22;20224;-52
2021/01/25 13:37:24;;;;;;;20.52;10.90;;;;;;;;;;6393554;22;20192;-61
2021/01/25 13:39:51;;;;;;;12.43;9.88;;;;;;;;;;6392813;22;20174;-57
2021/01/25 13:42:18;;;;;;;13.75;10.23;;;;;;;;;;6392256;22;20184;-54
2021/01/25 13:44:48;;;;;;;14.45;10.43;;;;;;;;;;6393253;22;20180;-51
2021/01/25 13:47:15;;;;;;;21.75;11.18;;;;;;;;;;6393142;22;20165;-54
2021/01/25 13:49:42;;;;;;;30.05;15.57;;;;;;;;;;6392116;22;20176;-53
2021/01/25 13:52:16;;;;;;;32.97;19.52;;;;;;;;;;6393308;22;20204;-56
2021/01/25 13:54:43;;;;;;;26.73;15.23;;;;;;;;;;6392003;22;20181;-54
2021/01/25 13:57:19;;;;;;;20.23;13.30;;;;;;;;;;6393387;22;20161;-58
2021/01/25 13:59:49;;;;;;;21.55;12.57;;;;;;;;;;6386421;22;20168;-55
2021/01/25 14:02:17;;;;;;;18.25;13.20;;;;;;;;;;6391720;22;20188;-58
2021/01/25 14:05:11;;;;;;;14.32;10.32;;;;;;;;;;6393707;22;20188;-59
2021/01/25 14:08:11;;;;;;;15.23;11.27;;;;;;;;;;6393816;22;20212;-59
2021/01/25 14:10:45;;;;;;;21.38;12.48;;;;;;;;;;6392607;22;20169;-52
2021/01/25 14:13:13;;;;;;;24.48;15.45;;;;;;;;;;6391661;22;20176;-60
2021/01/25 14:15:45;;;;;;;24.27;15.60;;;;;;;;;;6393227;22;20187;-55
2021/01/25 14:18:15;;;;;;;23.15;15.27;;;;;;;;;;6393934;22;20173;-59
2021/01/25 14:21:09;;;;;;;24.40;16.10;;;;;;;;;;6393399;22;20201;-58
2021/01/25 14:23:52;;;;;;;21.60;14.90;;;;;;;;;;6391077;22;20185;-55
2021/01/25 14:26:39;;;;;;;20.02;14.80;;;;;;;;;;6392923;22;20211;-52
2021/01/25 14:29:12;;;;;;;22.15;14.77;;;;;;;;;;6393502;22;20177;-58
2021/01/25 14:31:44;;;;;;;20.35;12.73;;;;;;;;;;6395105;22;20186;-58
2021/01/25 14:34:12;;;;;;;19.17;13.27;;;;;;;;;;6393970;22;20197;-54
2021/01/25 14:36:40;;;;;;;19.45;12.63;;;;;;;;;;6394683;22;20166;-54
2021/01/25 14:39:07;;;;;;;17.10;12.60;;;;;;;;;;6393295;22;20206;-54
2021/01/25 14:41:36;;;;;;;21.13;12.80;;;;;;;;;;6395211;22;20221;-57
2021/01/25 14:44:03;;;;;;;14.23;11.13;;;;;;;;;;6393963;22;20236;-60
2021/01/25 14:46:34;;;;;;;17.17;12.38;;;;;;;;;;6393975;22;20237;-60
2021/01/25 14:49:30;;;;;;;17.35;12.52;;;;;;;;;;6395260;22;20177;-57
2021/01/25 14:51:58;;;;;;;18.13;13.20;;;;;;;;;;6395004;22;20177;-55
2021/01/25 14:54:48;;;;;;;24.35;17.40;;;;;;;;;;6391255;22;20363;-62
2021/01/25 14:57:17;;;;;;;19.70;14.82;;;;;;;;;;6387010;22;20189;-56
2021/01/25 14:59:46;;;;;;;16.23;11.32;;;;;;;;;;6386894;22;20285;-54
2021/01/25 15:02:14;;;;;;;20.40;13.25;;;;;;;;;;6390645;22;20193;-56
2021/01/25 15:04:42;;;;;;;20.67;14.27;;;;;;;;;;6395040;22;20201;-58
2021/01/25 15:07:09;;;;;;;16.17;11.63;;;;;;;;;;6394333;22;20177;-55